Portada
METAR-TAF:

METAR-TAF

Aeropuertos :

Aeropuerto Internacional Blaise Diagne

Dakar, Senegal

latitud: 14-40-16N, longitud: 17-04-01W, altitud: 88 m

Observación

El informe se hizo hace 23 minutos, a las 00:00 UTC
Viento 7 kt del oeste-suroeste
Temperatura 27°C
Humedad 70%
Presión 1013 hPa
Visibilidad: 6000 m

METAR: GOBD 180000Z 25007KT 6000 NSC 27/21 Q1013 NOSIG

Hora: 00:23 (00:23 UTC)

Pronóstico

El informe se hizo hace 1 hora y 23 minutos, a las 23:00 UTC
Pronóstico válido del 17 a las 00 UTC al 18 a las 06 UTC
Viento 7 kt del oeste-suroeste
Visibilidad: 6000 m

TAF: GOBD 172300Z 1700/1806 24007KT 6000 NSC

Observaciones y pronósticos meteorológicos de más de 4000 aeropuertos (mensajes METAR y TAF).

Los puntos amarillos y rojos representan las estaciones disponibles.

Ponga el ratón en el punto deseado para ver el nombre de la estación.

Haga clic para ver las observaciones y los pronósticos meteorológicos.

Para cambiar el mapa : haga clic en los botones verdes con una cruz de color negro para hacer un zoom, en el botón verde con un guión para alejar o en las flechas verdes para mapas adyacentes.


METAR-TAF: